Time;durP1;ratioP1;P1;durP2;ratioP2;P2;SDS_P1;SDS_P2;PMS_P1;PMS_P2;Temp;Humidity;BMP_temperature;BMP_pressure;BME280_temperature;BME280_humidity;BME280_pressure;Samples;Min_cycle;Max_cycle;Signal;HPM_P1;HPM_P2
2023/07/11 00:01:13;;;;;;;10.83;10.03;;;21.20;1.00;;;;;;5040830;28;20466;-82
2023/07/11 00:03:44;;;;;;;10.53;9.73;;;21.10;1.00;;;;;;5042868;28;20480;-82
2023/07/11 00:06:16;;;;;;;11.80;10.70;;;21.00;1.00;;;;;;5039933;28;20464;-84
2023/07/11 00:08:43;;;;;;;10.43;9.43;;;21.00;1.00;;;;;;5040255;28;20563;-83
2023/07/11 00:11:15;;;;;;;9.83;9.13;;;21.00;1.00;;;;;;5041069;28;20499;-83
2023/07/11 00:13:43;;;;;;;9.73;8.97;;;21.00;1.00;;;;;;5042554;28;20472;-84
2023/07/11 00:16:13;;;;;;;10.20;9.33;;;21.00;1.00;;;;;;5039169;28;20467;-83
2023/07/11 00:18:40;;;;;;;10.93;10.03;;;20.90;1.00;;;;;;5035523;28;20623;-83
2023/07/11 00:21:09;;;;;;;10.80;9.90;;;20.90;1.00;;;;;;5041450;28;20479;-83
2023/07/11 00:23:36;;;;;;;9.43;8.80;;;20.90;1.00;;;;;;5042515;28;20511;-83
2023/07/11 00:26:05;;;;;;;9.10;8.40;;;20.90;1.00;;;;;;5039424;28;20515;-83
2023/07/11 00:28:31;;;;;;;11.20;10.23;;;20.80;1.00;;;;;;5042975;28;20496;-83
2023/07/11 00:31:02;;;;;;;10.30;9.30;;;20.80;1.00;;;;;;5040902;28;20955;-84
2023/07/11 00:33:29;;;;;;;9.83;9.13;;;20.80;1.00;;;;;;5039412;28;20557;-83
2023/07/11 00:35:56;;;;;;;9.50;8.80;;;20.80;1.00;;;;;;5039118;28;20503;-83
2023/07/11 00:38:24;;;;;;;10.10;9.00;;;20.80;1.00;;;;;;5037643;28;20473;-83
2023/07/11 00:40:52;;;;;;;9.77;9.07;;;20.80;1.00;;;;;;5037344;28;20538;-83
2023/07/11 00:43:21;;;;;;;9.10;8.40;;;20.70;1.00;;;;;;5039360;28;20462;-83
2023/07/11 00:46:13;;;;;;;9.10;8.40;;;20.80;1.00;;;;;;5038413;28;20550;-83
2023/07/11 00:48:44;;;;;;;10.03;9.23;;;20.80;1.00;;;;;;5031743;28;20489;-83
2023/07/11 00:51:17;;;;;;;10.20;9.30;;;20.80;1.00;;;;;;5037599;28;20500;-83
2023/07/11 00:53:47;;;;;;;8.83;8.13;;;20.70;1.00;;;;;;5020964;28;20493;-83
2023/07/11 00:56:19;;;;;;;9.50;8.70;;;20.70;1.00;;;;;;5037422;28;20453;-81
2023/07/11 00:58:47;;;;;;;9.07;8.17;;;20.60;1.00;;;;;;5040362;28;20543;-82
2023/07/11 01:01:19;;;;;;;9.50;8.80;;;20.60;1.00;;;;;;5038287;28;20927;-82
2023/07/11 01:03:48;;;;;;;9.57;8.77;;;20.50;1.00;;;;;;5047907;22;20939;-74
2023/07/11 01:06:18;;;;;;;10.30;9.40;;;20.50;1.00;;;;;;5039135;28;20552;-75
2023/07/11 01:08:48;;;;;;;9.17;8.47;;;20.40;1.00;;;;;;5038330;28;20537;-75
2023/07/11 01:11:16;;;;;;;10.80;9.87;;;20.40;1.00;;;;;;5031063;28;20479;-74
2023/07/11 01:13:43;;;;;;;9.87;9.17;;;20.30;1.00;;;;;;5037420;28;20465;-75
2023/07/11 01:16:10;;;;;;;9.30;8.60;;;20.30;1.00;;;;;;5036682;28;20944;-75
2023/07/11 01:18:37;;;;;;;10.57;9.53;;;20.20;1.00;;;;;;5034151;28;20543;-74
2023/07/11 01:21:05;;;;;;;9.57;8.87;;;20.20;1.00;;;;;;5034663;28;20884;-74
2023/07/11 01:23:34;;;;;;;9.67;8.67;;;20.20;1.00;;;;;;5038353;28;20542;-74
2023/07/11 01:26:01;;;;;;;10.03;9.03;;;20.20;1.00;;;;;;5039266;28;20485;-75
2023/07/11 01:28:29;;;;;;;9.77;9.03;;;20.10;1.00;;;;;;5042090;28;20499;-75
2023/07/11 01:30:56;;;;;;;9.40;8.60;;;20.10;1.00;;;;;;5036927;28;20588;-74
2023/07/11 01:33:24;;;;;;;9.33;8.60;;;20.10;1.00;;;;;;5040075;28;20474;-74
2023/07/11 01:35:52;;;;;;;10.07;9.27;;;20.10;1.00;;;;;;5041220;28;20461;-74
2023/07/11 01:38:20;;;;;;;9.67;8.73;;;20.00;1.00;;;;;;5042132;28;20472;-73
2023/07/11 01:40:48;;;;;;;9.60;8.90;;;20.00;1.00;;;;;;5036673;28;20827;-74
2023/07/11 01:43:17;;;;;;;9.93;9.13;;;20.00;1.00;;;;;;5040254;28;20449;-74
2023/07/11 01:45:44;;;;;;;10.23;9.43;;;20.00;1.00;;;;;;5040399;28;20467;-74
2023/07/11 01:48:11;;;;;;;9.90;9.13;;;19.90;1.00;;;;;;5041255;28;20533;-74
2023/07/11 01:50:38;;;;;;;9.17;8.40;;;19.90;1.00;;;;;;5041878;28;20488;-74
2023/07/11 01:53:05;;;;;;;10.00;9.20;;;19.90;1.00;;;;;;5042460;28;20464;-74
2023/07/11 01:55:32;;;;;;;9.67;8.77;;;19.90;1.00;;;;;;5042284;28;20459;-75
2023/07/11 01:58:00;;;;;;;10.10;9.30;;;19.80;1.00;;;;;;5040976;28;20536;-74
2023/07/11 02:00:27;;;;;;;9.30;8.50;;;19.80;1.00;;;;;;5037209;28;20599;-75
2023/07/11 02:02:54;;;;;;;9.73;8.93;;;19.80;1.00;;;;;;5041071;28;20469;-75
2023/07/11 02:05:21;;;;;;;10.43;9.53;;;19.80;1.00;;;;;;5044313;28;20461;-75
2023/07/11 02:07:48;;;;;;;9.40;8.50;;;19.80;1.00;;;;;;5037831;28;20486;-75
2023/07/11 02:10:16;;;;;;;9.20;8.50;;;19.70;1.00;;;;;;5038415;28;20588;-75
2023/07/11 02:12:43;;;;;;;9.97;9.07;;;19.70;1.00;;;;;;5037214;28;20938;-74
2023/07/11 02:15:11;;;;;;;10.53;9.63;;;19.70;1.00;;;;;;5041424;28;20489;-75
2023/07/11 02:17:38;;;;;;;9.67;8.97;;;19.70;1.00;;;;;;5039804;28;20466;-74
2023/07/11 02:20:07;;;;;;;10.60;9.70;;;19.60;1.00;;;;;;5038328;28;20594;-74
2023/07/11 02:22:34;;;;;;;10.10;9.30;;;19.50;1.00;;;;;;5038139;28;20459;-74
2023/07/11 02:25:01;;;;;;;10.50;9.40;;;19.50;1.00;;;;;;5036706;28;22047;-75
2023/07/11 02:27:28;;;;;;;10.00;9.20;;;19.50;1.00;;;;;;5040369;28;20462;-75
2023/07/11 02:29:55;;;;;;;10.20;9.40;;;19.50;1.00;;;;;;5038595;28;20515;-74
2023/07/11 02:32:23;;;;;;;11.90;10.90;;;19.40;1.00;;;;;;5041362;28;20545;-75
2023/07/11 02:34:50;;;;;;;10.77;9.87;;;19.40;1.00;;;;;;5033520;28;20968;-75
2023/07/11 02:37:17;;;;;;;11.00;10.13;;;19.30;1.00;;;;;;5039765;28;20561;-75
2023/07/11 02:39:47;;;;;;;10.83;9.90;;;19.30;1.00;;;;;;5042185;28;20854;-74
2023/07/11 02:42:14;;;;;;;10.87;10.00;;;19.30;1.00;;;;;;5042195;28;20479;-75
2023/07/11 02:44:41;;;;;;;10.90;10.00;;;19.30;1.00;;;;;;5035449;28;20566;-74
2023/07/11 02:47:08;;;;;;;12.43;11.17;;;19.30;1.00;;;;;;5037206;28;20480;-75
2023/07/11 02:49:38;;;;;;;10.77;9.90;;;19.30;1.00;;;;;;5040826;28;20507;-75
2023/07/11 02:52:06;;;;;;;10.80;10.00;;;19.20;1.00;;;;;;5036437;28;20833;-75
2023/07/11 02:54:36;;;;;;;11.83;10.70;;;19.20;1.00;;;;;;5041886;28;20469;-73
2023/07/11 02:57:03;;;;;;;12.10;11.00;;;19.10;1.00;;;;;;5040299;28;20518;-74
2023/07/11 02:59:30;;;;;;;12.03;11.03;;;19.10;1.00;;;;;;5041979;28;20475;-73
2023/07/11 03:01:58;;;;;;;12.17;11.23;;;19.10;1.00;;;;;;5034045;28;20578;-74
2023/07/11 03:04:25;;;;;;;12.53;11.43;;;19.10;1.00;;;;;;5038612;28;20479;-74
2023/07/11 03:06:56;;;;;;;13.10;11.97;;;19.00;1.00;;;;;;5039117;28;20549;-74
2023/07/11 03:09:24;;;;;;;14.03;12.63;;;19.00;1.00;;;;;;5038250;28;20490;-73
2023/07/11 03:11:51;;;;;;;13.70;12.50;;;19.00;1.00;;;;;;5040287;28;20509;-73
2023/07/11 03:14:18;;;;;;;12.07;11.07;;;18.90;1.00;;;;;;5039173;28;20544;-74
2023/07/11 03:16:45;;;;;;;13.20;12.10;;;18.90;1.00;;;;;;5034827;28;20447;-74
2023/07/11 03:19:12;;;;;;;13.60;12.50;;;18.90;1.00;;;;;;5041172;28;20473;-74
2023/07/11 03:21:39;;;;;;;14.33;13.03;;;18.90;1.00;;;;;;5038591;28;20599;-74
2023/07/11 03:24:10;;;;;;;13.53;12.23;;;18.80;1.00;;;;;;5040275;28;20533;-75
2023/07/11 03:26:37;;;;;;;13.57;12.30;;;18.80;1.00;;;;;;5041268;28;20462;-75
2023/07/11 03:29:03;;;;;;;13.97;12.67;;;18.80;1.00;;;;;;5040528;28;20987;-75
2023/07/11 03:31:30;;;;;;;14.13;12.67;;;18.70;1.00;;;;;;5036295;28;20552;-75
2023/07/11 03:33:57;;;;;;;13.73;12.33;;;18.70;1.00;;;;;;5040492;28;20569;-75
2023/07/11 03:36:24;;;;;;;13.90;12.70;;;18.70;1.00;;;;;;5040084;28;20526;-75
2023/07/11 03:38:51;;;;;;;14.20;12.90;;;18.70;1.00;;;;;;5037790;28;20478;-75
2023/07/11 03:41:19;;;;;;;14.27;12.77;;;18.70;1.00;;;;;;5043190;28;20564;-74
2023/07/11 03:43:47;;;;;;;14.20;12.83;;;18.70;1.00;;;;;;5040934;28;20502;-74
2023/07/11 03:46:13;;;;;;;17.37;12.67;;;18.70;1.00;;;;;;5040153;28;20496;-75
2023/07/11 03:48:40;;;;;;;16.50;14.77;;;18.70;1.00;;;;;;5037149;28;20517;-74
2023/07/11 03:51:07;;;;;;;15.43;13.07;;;18.80;1.00;;;;;;5036665;28;20914;-74
2023/07/11 03:53:34;;;;;;;15.10;13.70;;;18.90;1.00;;;;;;5039730;28;20458;-76
2023/07/11 03:56:01;;;;;;;14.73;13.20;;;18.90;1.00;;;;;;5042460;28;20900;-73
2023/07/11 03:58:30;;;;;;;14.47;12.97;;;18.90;1.00;;;;;;5041825;28;20548;-73
2023/07/11 04:00:57;;;;;;;12.90;11.60;;;19.00;1.00;;;;;;5037161;28;20664;-74
2023/07/11 04:03:24;;;;;;;13.60;12.40;;;19.10;1.00;;;;;;5035157;28;20588;-74
2023/07/11 04:05:51;;;;;;;12.70;11.60;;;19.10;1.00;;;;;;5037026;28;20456;-74
2023/07/11 04:08:18;;;;;;;12.07;10.87;;;19.20;1.00;;;;;;5039302;28;20465;-74
2023/07/11 04:10:45;;;;;;;13.50;12.37;;;19.30;1.00;;;;;;5032010;28;20458;-74
2023/07/11 04:13:12;;;;;;;13.47;12.20;;;19.30;1.00;;;;;;5038827;28;20486;-74
2023/07/11 04:15:41;;;;;;;12.67;11.40;;;19.30;1.00;;;;;;5043336;28;20499;-74
2023/07/11 04:18:07;;;;;;;12.77;11.70;;;19.30;1.00;;;;;;5045034;28;20575;-74
2023/07/11 04:20:35;;;;;;;14.83;11.87;;;19.30;1.00;;;;;;5041809;28;20461;-74
2023/07/11 04:23:02;;;;;;;16.20;12.87;;;19.40;1.00;;;;;;5043106;28;20451;-74
2023/07/11 04:25:29;;;;;;;15.80;12.70;;;19.40;1.00;;;;;;5040692;28;21002;-73
2023/07/11 04:27:57;;;;;;;17.93;13.60;;;19.50;1.00;;;;;;5040933;28;20452;-75
2023/07/11 04:30:24;;;;;;;13.13;12.13;;;19.60;1.00;;;;;;5039357;28;20453;-75
2023/07/11 04:32:52;;;;;;;13.90;12.60;;;19.60;1.00;;;;;;5038980;28;20506;-74
2023/07/11 04:35:19;;;;;;;12.47;11.37;;;19.60;1.00;;;;;;5041415;28;20479;-74
2023/07/11 04:37:46;;;;;;;12.53;11.43;;;19.70;1.00;;;;;;5042704;28;20561;-76
2023/07/11 04:40:13;;;;;;;13.97;12.37;;;19.80;1.00;;;;;;5041846;28;20852;-75
2023/07/11 04:42:40;;;;;;;12.40;11.30;;;19.90;1.00;;;;;;5039662;28;20544;-75
2023/07/11 04:45:09;;;;;;;12.60;11.60;;;20.00;1.00;;;;;;5043117;28;20456;-75
2023/07/11 04:47:36;;;;;;;11.73;10.80;;;20.00;1.00;;;;;;5038285;28;20473;-75
2023/07/11 04:50:06;;;;;;;11.07;10.17;;;20.10;1.00;;;;;;5043457;28;20952;-77
2023/07/11 04:52:33;;;;;;;11.83;10.90;;;20.20;1.00;;;;;;5042427;28;20478;-76
2023/07/11 04:55:00;;;;;;;12.40;11.37;;;20.20;1.00;;;;;;5041795;28;20503;-75
2023/07/11 04:57:27;;;;;;;14.40;12.27;;;20.20;1.00;;;;;;5042798;28;20555;-76
2023/07/11 04:59:54;;;;;;;13.17;12.17;;;20.20;1.00;;;;;;5044011;28;20492;-75
2023/07/11 05:02:20;;;;;;;12.23;11.13;;;20.30;1.00;;;;;;5045833;28;20595;-76
2023/07/11 05:04:47;;;;;;;11.10;10.13;;;20.40;1.00;;;;;;5044494;28;20555;-75
2023/07/11 05:07:16;;;;;;;12.23;11.23;;;20.40;1.00;;;;;;5046580;28;20503;-76
2023/07/11 05:09:43;;;;;;;10.77;9.97;;;20.40;1.00;;;;;;5047882;28;20564;-76
2023/07/11 05:12:11;;;;;;;10.60;9.67;;;20.50;1.00;;;;;;5044177;28;21338;-76
2023/07/11 05:14:38;;;;;;;11.50;10.60;;;20.60;1.00;;;;;;5047791;28;20535;-75
2023/07/11 05:17:05;;;;;;;10.40;9.53;;;20.60;1.00;;;;;;5046048;28;20654;-76
2023/07/11 05:19:32;;;;;;;9.20;8.50;;;20.70;1.00;;;;;;5045954;28;20456;-74
2023/07/11 05:21:59;;;;;;;8.60;8.00;;;20.60;1.00;;;;;;5044847;28;20549;-75
2023/07/11 05:24:27;;;;;;;9.83;8.93;;;20.70;1.00;;;;;;5047778;28;20559;-75
2023/07/11 05:26:54;;;;;;;8.27;7.60;;;20.80;1.00;;;;;;5044893;28;20563;-75
2023/07/11 05:29:21;;;;;;;9.00;8.13;;;20.80;1.00;;;;;;5049316;28;20530;-75
2023/07/11 05:31:48;;;;;;;8.20;7.60;;;20.80;1.00;;;;;;5042870;28;20955;-74
2023/07/11 05:34:15;;;;;;;8.43;7.83;;;20.70;1.00;;;;;;5047022;28;20970;-75
2023/07/11 05:36:42;;;;;;;8.60;7.90;;;20.80;1.00;;;;;;5042104;28;20539;-74
2023/07/11 05:39:11;;;;;;;7.60;6.93;;;20.80;1.00;;;;;;5047576;28;20462;-74
2023/07/11 05:41:44;;;;;;;7.80;7.20;;;20.80;1.00;;;;;;5042106;28;20550;-76
2023/07/11 05:44:12;;;;;;;9.27;7.20;;;21.10;1.00;;;;;;5043469;28;20490;-75
2023/07/11 05:46:39;;;;;;;7.83;7.23;;;21.20;1.00;;;;;;5047100;28;20495;-75
2023/07/11 05:49:07;;;;;;;7.33;6.77;;;21.30;1.00;;;;;;5048769;28;20458;-76
2023/07/11 05:51:34;;;;;;;7.40;6.70;;;21.30;1.00;;;;;;5046081;28;21079;-75
2023/07/11 05:54:02;;;;;;;7.47;6.77;;;21.40;1.00;;;;;;5045077;28;21274;-76
2023/07/11 05:56:29;;;;;;;9.87;7.13;;;21.50;1.00;;;;;;5049645;28;20895;-76
2023/07/11 05:58:59;;;;;;;6.97;6.37;;;21.40;1.00;;;;;;5045174;28;20465;-76
2023/07/11 06:01:28;;;;;;;6.70;6.20;;;21.40;1.00;;;;;;5047616;28;20488;-75
2023/07/11 06:04:06;;;;;;;6.33;5.70;;;21.50;1.00;;;;;;5046933;28;20465;-75
2023/07/11 06:06:40;;;;;;;7.00;6.37;;;21.60;1.00;;;;;;5050311;28;20477;-75
2023/07/11 06:09:07;;;;;;;6.97;6.17;;;21.80;1.00;;;;;;5049247;28;20479;-75
2023/07/11 06:11:34;;;;;;;6.57;6.00;;;21.90;1.00;;;;;;5046875;28;20428;-76
2023/07/11 06:14:02;;;;;;;6.20;5.63;;;21.90;1.00;;;;;;5043643;28;20448;-76
2023/07/11 06:16:29;;;;;;;7.00;5.57;;;22.00;1.00;;;;;;5044249;28;20542;-76
2023/07/11 06:18:56;;;;;;;6.70;6.13;;;22.00;1.00;;;;;;5049154;28;20462;-76
2023/07/11 06:21:23;;;;;;;6.23;5.63;;;22.10;1.00;;;;;;5053017;28;20456;-76
2023/07/11 06:23:51;;;;;;;9.33;8.53;;;22.10;1.00;;;;;;5044558;28;20899;-74
2023/07/11 06:26:17;;;;;;;6.67;6.07;;;22.10;1.00;;;;;;5043068;28;20467;-74
2023/07/11 06:28:46;;;;;;;6.30;5.43;;;22.30;1.00;;;;;;5045935;28;20444;-73
2023/07/11 06:31:15;;;;;;;6.23;5.63;;;22.40;1.00;;;;;;5045810;28;20549;-74
2023/07/11 06:33:42;;;;;;;5.80;4.40;;;22.60;1.00;;;;;;5043193;28;20582;-72
2023/07/11 06:36:10;;;;;;;5.30;4.80;;;22.70;1.00;;;;;;5041096;28;20500;-72
2023/07/11 06:38:37;;;;;;;4.73;4.33;;;22.80;1.00;;;;;;5040197;28;20489;-76
2023/07/11 06:41:04;;;;;;;4.17;3.80;;;22.80;1.00;;;;;;5040026;28;20559;-74
2023/07/11 06:43:31;;;;;;;4.87;3.23;;;22.90;1.00;;;;;;5044409;28;20557;-73
2023/07/11 06:46:00;;;;;;;6.07;3.90;;;22.90;1.00;;;;;;5031787;28;20788;-72
2023/07/11 06:48:30;;;;;;;6.33;3.70;;;22.90;1.00;;;;;;5036648;28;20464;-72
2023/07/11 06:50:59;;;;;;;3.53;3.30;;;23.00;1.00;;;;;;5036757;28;20909;-71
2023/07/11 06:53:29;;;;;;;5.40;4.67;;;23.00;1.00;;;;;;5041617;28;20487;-72
2023/07/11 06:55:56;;;;;;;3.27;2.77;;;22.80;1.00;;;;;;5037758;28;20468;-72
2023/07/11 06:58:24;;;;;;;3.80;3.23;;;22.80;1.00;;;;;;5039488;28;21118;-72
2023/07/11 07:00:55;;;;;;;4.50;3.47;;;22.80;1.00;;;;;;5037791;28;20436;-72
2023/07/11 07:03:23;;;;;;;3.83;3.43;;;22.80;1.00;;;;;;5038803;28;20555;-72
2023/07/11 07:05:52;;;;;;;4.63;2.90;;;22.90;1.00;;;;;;5042385;28;20555;-73
2023/07/11 07:08:21;;;;;;;4.70;3.60;;;23.00;1.00;;;;;;5040025;28;20571;-72
2023/07/11 07:10:49;;;;;;;5.80;3.93;;;23.10;1.00;;;;;;5035902;28;20574;-71
2023/07/11 07:13:16;;;;;;;4.23;3.10;;;23.30;1.00;;;;;;5034606;28;20520;-71
2023/07/11 07:15:46;;;;;;;4.83;3.80;;;23.40;1.00;;;;;;5034341;28;20489;-70
2023/07/11 07:18:13;;;;;;;3.87;3.20;;;23.60;1.00;;;;;;5035490;28;20482;-72
2023/07/11 07:20:41;;;;;;;6.27;3.67;;;23.70;1.00;;;;;;5040096;28;20473;-71
2023/07/11 07:23:09;;;;;;;3.40;3.10;;;23.60;1.00;;;;;;5041012;28;21705;-70
2023/07/11 07:25:37;;;;;;;4.20;3.20;;;23.60;1.00;;;;;;5038079;28;20482;-70
2023/07/11 07:28:04;;;;;;;4.57;3.73;;;23.80;1.00;;;;;;5040963;28;20489;-71
2023/07/11 07:30:31;;;;;;;4.10;3.30;;;23.80;1.00;;;;;;5043197;28;20458;-72
2023/07/11 07:32:58;;;;;;;3.17;2.87;;;23.90;1.00;;;;;;5041522;28;20535;-70
2023/07/11 07:35:25;;;;;;;4.40;3.17;;;23.80;1.00;;;;;;5037609;28;20518;-70
2023/07/11 07:37:52;;;;;;;3.10;2.80;;;23.90;1.00;;;;;;5042391;28;20487;-72
2023/07/11 07:40:22;;;;;;;3.57;3.20;;;24.00;1.00;;;;;;5035847;28;20511;-71
2023/07/11 07:42:49;;;;;;;4.27;3.97;;;24.10;1.00;;;;;;5038610;28;20547;-71
2023/07/11 07:45:16;;;;;;;3.43;3.13;;;24.30;1.00;;;;;;5032905;28;21046;-71
2023/07/11 07:47:42;;;;;;;3.37;2.80;;;24.50;1.00;;;;;;5039920;28;20589;-71
2023/07/11 07:50:10;;;;;;;3.03;2.73;;;24.50;1.00;;;;;;5042489;28;20491;-71
2023/07/11 07:52:37;;;;;;;3.43;2.83;;;24.70;1.00;;;;;;5042324;28;20552;-73
2023/07/11 07:55:05;;;;;;;4.73;2.30;;;24.90;1.00;;;;;;5040487;28;20612;-72
2023/07/11 07:57:33;;;;;;;4.43;3.33;;;24.90;1.00;;;;;;5039477;28;20510;-72
2023/07/11 08:00:02;;;;;;;4.07;3.53;;;25.00;1.00;;;;;;5038337;28;20466;-71
2023/07/11 08:02:31;;;;;;;4.83;3.20;;;25.10;1.00;;;;;;5038960;28;20958;-71
2023/07/11 08:04:58;;;;;;;22.07;3.97;;;25.20;1.00;;;;;;5039369;28;20561;-71
2023/07/11 08:07:27;;;;;;;4.50;3.10;;;25.40;1.00;;;;;;5040802;28;20483;-73
2023/07/11 08:09:55;;;;;;;2.73;2.53;;;25.50;1.00;;;;;;5039469;28;20464;-73
2023/07/11 08:12:22;;;;;;;4.03;2.33;;;25.60;1.00;;;;;;5042777;28;20462;-71
2023/07/11 08:14:51;;;;;;;5.67;2.83;;;25.80;1.00;;;;;;5040765;28;20565;-71
2023/07/11 08:17:18;;;;;;;4.60;2.73;;;25.80;1.00;;;;;;5041030;28;20548;-69
2023/07/11 08:19:45;;;;;;;3.30;2.60;;;25.80;1.00;;;;;;5045676;28;20461;-69
2023/07/11 08:22:12;;;;;;;4.33;3.03;;;26.00;1.00;;;;;;5037737;28;20951;-71
2023/07/11 08:24:39;;;;;;;3.10;2.37;;;26.10;1.00;;;;;;5040800;28;20476;-72
2023/07/11 08:27:06;;;;;;;3.20;2.50;;;26.20;1.00;;;;;;5043984;28;20513;-73
2023/07/11 08:29:33;;;;;;;4.47;2.70;;;26.30;1.00;;;;;;5036163;28;20502;-71
2023/07/11 08:32:01;;;;;;;5.63;3.40;;;26.40;1.00;;;;;;5031649;28;20489;-72
2023/07/11 08:34:28;;;;;;;3.90;3.50;;;26.40;1.00;;;;;;5039383;28;20505;-71
2023/07/11 08:36:55;;;;;;;3.30;2.70;;;26.50;1.00;;;;;;5039545;28;20890;-73
2023/07/11 08:39:22;;;;;;;2.43;2.23;;;26.70;1.00;;;;;;5038725;28;20550;-72
2023/07/11 08:41:51;;;;;;;5.00;3.83;;;26.70;1.00;;;;;;5044154;28;20463;-72
2023/07/11 08:44:22;;;;;;;2.83;2.37;;;26.60;1.00;;;;;;5031456;28;20560;-72
2023/07/11 08:46:56;;;;;;;4.50;2.33;;;26.60;1.00;;;;;;5042959;28;20518;-72
2023/07/11 08:49:30;;;;;;;2.93;2.00;;;26.70;1.00;;;;;;5038121;28;20470;-73
2023/07/11 08:51:59;;;;;;;2.20;1.20;;;26.70;1.00;;;;;;5040432;28;20552;-73
2023/07/11 08:54:30;;;;;;;4.13;2.10;;;26.70;1.00;;;;;;5041164;28;20896;-74
2023/07/11 08:56:59;;;;;;;3.30;2.13;;;26.90;1.00;;;;;;5040043;28;20517;-74
2023/07/11 08:59:35;;;;;;;2.30;1.83;;;27.10;1.00;;;;;;5041635;28;20455;-75
2023/07/11 09:02:17;;;;;;;2.50;2.13;;;27.40;1.00;;;;;;5036132;28;20455;-73
2023/07/11 09:04:51;;;;;;;7.90;3.10;;;27.40;1.00;;;;;;5034234;28;21005;-74
2023/07/11 09:07:29;;;;;;;2.43;1.73;;;27.60;1.00;;;;;;5037147;28;20464;-74
2023/07/11 09:09:57;;;;;;;2.93;1.80;;;27.70;1.00;;;;;;5040006;28;20544;-73
2023/07/11 09:12:38;;;;;;;2.70;1.70;;;27.80;1.00;;;;;;5040671;28;20500;-73
2023/07/11 09:15:17;;;;;;;4.43;2.77;;;27.80;1.00;;;;;;5041381;28;20472;-75
2023/07/11 09:17:56;;;;;;;3.50;2.43;;;27.80;1.00;;;;;;5041210;28;20458;-75
2023/07/11 09:20:37;;;;;;;4.97;1.80;;;27.80;1.00;;;;;;5042171;28;20463;-75
2023/07/11 09:23:18;;;;;;;2.90;2.13;;;28.00;1.00;;;;;;5046036;28;20476;-73
2023/07/11 09:25:47;;;;;;;3.20;2.30;;;27.90;1.00;;;;;;5039172;28;20486;-73
2023/07/11 09:28:19;;;;;;;3.70;2.40;;;27.80;1.00;;;;;;5037138;28;20609;-75
2023/07/11 09:30:51;;;;;;;3.30;2.23;;;28.10;1.00;;;;;;5041855;28;20897;-73
2023/07/11 09:33:23;;;;;;;2.67;2.30;;;28.30;1.00;;;;;;5040302;28;20460;-73
2023/07/11 09:35:53;;;;;;;4.13;2.40;;;28.10;1.00;;;;;;5039929;28;20508;-75
2023/07/11 09:38:34;;;;;;;2.77;1.70;;;28.10;1.00;;;;;;5037769;28;20553;-75
2023/07/11 09:41:06;;;;;;;3.17;2.00;;;28.10;1.00;;;;;;5037704;28;20597;-74
2023/07/11 09:43:34;;;;;;;4.47;2.23;;;28.60;1.00;;;;;;5039098;28;20491;-75
2023/07/11 09:46:01;;;;;;;2.33;2.13;;;29.90;1.00;;;;;;5039252;28;20456;-74
2023/07/11 09:48:34;;;;;;;4.77;2.27;;;31.30;1.00;;;;;;5036892;28;20489;-74
2023/07/11 09:51:15;;;;;;;3.83;1.70;;;32.30;1.00;;;;;;5040779;28;20459;-73
2023/07/11 09:53:43;;;;;;;3.30;2.10;;;33.20;1.00;;;;;;5041449;28;20518;-73
2023/07/11 09:56:13;;;;;;;8.07;5.27;;;33.80;1.00;;;;;;5043086;28;20835;-75
2023/07/11 09:58:41;;;;;;;2.60;1.80;;;34.80;1.00;;;;;;5041782;28;20464;-76
2023/07/11 10:01:24;;;;;;;2.70;2.13;;;35.70;1.00;;;;;;5044433;28;20448;-76
2023/07/11 10:03:55;;;;;;;4.70;2.70;;;36.60;1.00;;;;;;5038012;28;20469;-75
2023/07/11 10:06:35;;;;;;;3.30;2.20;;;37.10;1.00;;;;;;5040903;28;20526;-75
2023/07/11 10:09:14;;;;;;;12.50;11.63;;;37.30;1.00;;;;;;5039799;28;20457;-76
2023/07/11 10:11:42;;;;;;;3.00;2.40;;;37.60;1.00;;;;;;5044023;28;20467;-75
2023/07/11 10:14:17;;;;;;;4.00;3.10;;;37.80;1.00;;;;;;5047933;28;20460;-74
2023/07/11 10:16:46;;;;;;;2.13;1.93;;;37.70;1.00;;;;;;5040866;28;20472;-76
2023/07/11 10:19:15;;;;;;;2.47;1.77;;;37.90;1.00;;;;;;5041010;28;20942;-76
2023/07/11 10:21:45;;;;;;;2.23;1.87;;;38.50;1.00;;;;;;5041149;28;20473;-76
2023/07/11 10:24:17;;;;;;;2.27;2.07;;;38.70;1.00;;;;;;5048148;28;20472;-76
2023/07/11 10:26:47;;;;;;;2.50;2.20;;;39.10;1.00;;;;;;5041563;28;20502;-75
2023/07/11 10:29:18;;;;;;;3.47;2.33;;;38.50;1.00;;;;;;5044276;28;20661;-75
2023/07/11 10:31:50;;;;;;;2.93;2.43;;;38.20;1.00;;;;;;5043145;28;20461;-75
2023/07/11 10:34:23;;;;;;;2.00;1.90;;;38.40;1.00;;;;;;5043157;28;21359;-76
2023/07/11 10:36:54;;;;;;;2.40;2.20;;;38.80;1.00;;;;;;5038255;28;21507;-76
2023/07/11 10:39:26;;;;;;;2.23;2.03;;;38.90;1.00;;;;;;5027982;28;20537;-76
2023/07/11 10:41:58;;;;;;;3.07;2.20;;;38.70;1.00;;;;;;5041458;28;20464;-76
2023/07/11 10:44:31;;;;;;;2.20;2.00;;;39.10;1.00;;;;;;5040257;28;20425;-75
2023/07/11 10:46:58;;;;;;;2.30;2.10;;;39.70;1.00;;;;;;5043938;28;20484;-75
2023/07/11 10:49:31;;;;;;;2.40;2.20;;;40.30;1.00;;;;;;5041757;28;20464;-75
2023/07/11 10:52:05;;;;;;;3.80;2.50;;;40.70;1.00;;;;;;5043958;28;20452;-75
2023/07/11 10:54:44;;;;;;;3.23;2.23;;;41.20;1.00;;;;;;5044301;28;20906;-75
2023/07/11 10:57:16;;;;;;;2.10;1.90;;;40.80;1.00;;;;;;5044235;28;20468;-76
2023/07/11 10:59:43;;;;;;;3.73;2.47;;;40.60;1.00;;;;;;5043582;28;20548;-75
2023/07/11 11:02:16;;;;;;;3.20;2.87;;;40.70;1.00;;;;;;5036976;28;20593;-74
2023/07/11 11:05:04;;;;;;;3.80;3.30;;;41.30;1.00;;;;;;5029129;28;20468;-73
2023/07/11 11:07:39;;;;;;;3.10;2.73;;;40.50;1.00;;;;;;5038468;28;20579;-73
2023/07/11 11:10:15;;;;;;;3.07;2.87;;;41.00;1.00;;;;;;5025302;28;20469;-69
2023/07/11 11:12:50;;;;;;;2.77;2.57;;;41.60;1.00;;;;;;5041884;28;20473;-70
2023/07/11 11:15:29;;;;;;;3.73;3.17;;;42.00;1.00;;;;;;5040684;28;20452;-75
2023/07/11 11:18:08;;;;;;;7.37;3.10;;;41.90;1.00;;;;;;5042684;28;21058;-73
2023/07/11 11:20:46;;;;;;;3.30;3.00;;;41.10;1.00;;;;;;5041372;28;20451;-74
2023/07/11 11:23:30;;;;;;;5.00;3.60;;;41.30;1.00;;;;;;5044628;28;20488;-75
2023/07/11 11:26:10;;;;;;;4.80;3.43;;;41.30;1.00;;;;;;5036953;28;20487;-76
2023/07/11 11:28:46;;;;;;;4.00;3.70;;;41.50;1.00;;;;;;5044351;28;20978;-73
2023/07/11 11:31:21;;;;;;;3.60;3.27;;;41.70;1.00;;;;;;5042859;28;20417;-74
2023/07/11 11:34:02;;;;;;;6.00;4.03;;;42.10;1.00;;;;;;5041564;28;20532;-73
2023/07/11 11:36:31;;;;;;;4.17;2.90;;;42.20;1.00;;;;;;5040457;28;20463;-75
2023/07/11 11:39:20;;;;;;;3.93;2.90;;;42.20;1.00;;;;;;5040146;28;20436;-75
2023/07/11 11:41:54;;;;;;;5.20;4.50;;;42.10;1.00;;;;;;5043636;28;20468;-73
2023/07/11 11:44:28;;;;;;;3.67;3.33;;;42.40;1.00;;;;;;5044603;28;20513;-73
2023/07/11 11:46:55;;;;;;;4.43;3.50;;;42.50;1.00;;;;;;5040763;28;20452;-73
2023/07/11 11:49:25;;;;;;;4.97;3.57;;;42.80;1.00;;;;;;5043134;28;20510;-75
2023/07/11 11:51:53;;;;;;;3.70;2.53;;;43.10;1.00;;;;;;5040922;28;20456;-74
2023/07/11 11:54:25;;;;;;;2.90;2.60;;;43.10;1.00;;;;;;5042868;28;20464;-74
2023/07/11 11:56:56;;;;;;;3.37;3.07;;;43.20;1.00;;;;;;5039199;28;20520;-74
2023/07/11 11:59:26;;;;;;;3.67;3.37;;;43.30;1.00;;;;;;5045722;28;20491;-75
2023/07/11 12:02:01;;;;;;;4.00;2.83;;;43.40;1.00;;;;;;5051734;28;20488;-73
2023/07/11 12:04:50;;;;;;;2.60;2.40;;;43.20;1.00;;;;;;5041002;28;20468;-72
2023/07/11 12:07:25;;;;;;;3.20;2.90;;;43.00;1.00;;;;;;5035396;28;21033;-73
2023/07/11 12:10:12;;;;;;;3.60;3.30;;;42.70;1.00;;;;;;5039524;28;20566;-75
2023/07/11 12:12:55;;;;;;;3.90;3.33;;;42.90;1.00;;;;;;5039383;28;20452;-74
2023/07/11 12:15:29;;;;;;;4.43;3.10;;;43.50;1.00;;;;;;5044204;28;20457;-75
2023/07/11 12:18:13;;;;;;;4.57;3.40;;;43.40;1.00;;;;;;5041532;28;20902;-75
2023/07/11 12:20:40;;;;;;;2.90;2.70;;;43.70;1.00;;;;;;5029273;28;20967;-76
2023/07/11 12:23:18;;;;;;;3.63;3.30;;;43.70;1.00;;;;;;5031477;28;20456;-74
2023/07/11 12:26:10;;;;;;;3.40;3.10;;;43.70;1.00;;;;;;5040267;28;21786;-75
2023/07/11 12:28:41;;;;;;;4.87;3.10;;;43.60;1.00;;;;;;5041213;28;20477;-74
2023/07/11 12:31:18;;;;;;;3.07;2.80;;;43.00;1.00;;;;;;5039717;28;20497;-74
2023/07/11 12:33:55;;;;;;;3.77;2.90;;;42.20;1.00;;;;;;5035943;28;20518;-75
2023/07/11 12:36:59;;;;;;;3.43;3.13;;;41.90;1.00;;;;;;5037032;28;20546;-76
2023/07/11 12:39:40;;;;;;;3.40;3.10;;;41.60;1.00;;;;;;5043833;28;20477;-77
2023/07/11 12:42:24;;;;;;;3.63;3.37;;;42.20;1.00;;;;;;5043261;28;20671;-76
2023/07/11 12:44:52;;;;;;;8.57;7.93;;;42.90;1.00;;;;;;5043000;28;20466;-76
2023/07/11 12:47:20;;;;;;;3.50;3.20;;;43.50;1.00;;;;;;5045209;28;20480;-76
2023/07/11 12:49:50;;;;;;;4.60;3.30;;;43.60;1.00;;;;;;5039661;28;20484;-76
2023/07/11 12:52:19;;;;;;;3.43;2.70;;;44.00;1.00;;;;;;5041567;28;20468;-77
2023/07/11 12:54:48;;;;;;;2.93;2.53;;;44.50;1.00;;;;;;5039474;28;22906;-76
2023/07/11 12:57:18;;;;;;;4.33;3.17;;;44.80;1.00;;;;;;5045250;28;20939;-77
2023/07/11 12:59:45;;;;;;;3.10;2.60;;;44.20;1.00;;;;;;5042502;28;20448;-75
2023/07/11 13:02:16;;;;;;;3.10;2.80;;;43.20;1.00;;;;;;5041917;28;21041;-76
2023/07/11 13:04:48;;;;;;;6.07;5.47;;;42.90;1.00;;;;;;5041693;28;20469;-74
2023/07/11 13:07:17;;;;;;;3.67;3.37;;;43.00;1.00;;;;;;5042771;28;20462;-76